sensor_id;sensor_type;location;lat;lon;timestamp;P1;durP1;ratioP1;P2;durP2;ratioP2
7375;SDS011;3728;42.266;24.944;2023-04-25T00:00:21;2.17;;;1.40;;
7375;SDS011;3728;42.266;24.944;2023-04-25T00:02:48;1.30;;;1.20;;
7375;SDS011;3728;42.266;24.944;2023-04-25T00:05:16;1.50;;;1.40;;
7375;SDS011;3728;42.266;24.944;2023-04-25T00:07:44;1.20;;;1.10;;
7375;SDS011;3728;42.266;24.944;2023-04-25T00:10:12;1.40;;;1.30;;
7375;SDS011;3728;42.266;24.944;2023-04-25T00:12:39;2.17;;;1.00;;
7375;SDS011;3728;42.266;24.944;2023-04-25T00:15:08;1.70;;;1.07;;
7375;SDS011;3728;42.266;24.944;2023-04-25T00:17:36;2.57;;;1.30;;
7375;SDS011;3728;42.266;24.944;2023-04-25T00:20:07;2.67;;;1.60;;
7375;SDS011;3728;42.266;24.944;2023-04-25T00:22:36;3.43;;;1.67;;
7375;SDS011;3728;42.266;24.944;2023-04-25T00:25:04;2.70;;;1.60;;
7375;SDS011;3728;42.266;24.944;2023-04-25T00:27:32;1.90;;;1.80;;
7375;SDS011;3728;42.266;24.944;2023-04-25T00:30:00;2.23;;;2.03;;
7375;SDS011;3728;42.266;24.944;2023-04-25T00:32:28;2.77;;;1.90;;
7375;SDS011;3728;42.266;24.944;2023-04-25T00:34:56;2.17;;;1.70;;
7375;SDS011;3728;42.266;24.944;2023-04-25T00:37:24;1.40;;;1.10;;
7375;SDS011;3728;42.266;24.944;2023-04-25T00:39:52;1.40;;;1.30;;
7375;SDS011;3728;42.266;24.944;2023-04-25T00:42:21;3.27;;;1.50;;
7375;SDS011;3728;42.266;24.944;2023-04-25T00:44:49;1.13;;;1.10;;
7375;SDS011;3728;42.266;24.944;2023-04-25T00:47:18;1.67;;;1.10;;
7375;SDS011;3728;42.266;24.944;2023-04-25T00:49:46;2.63;;;1.20;;
7375;SDS011;3728;42.266;24.944;2023-04-25T00:52:14;1.50;;;1.40;;
7375;SDS011;3728;42.266;24.944;2023-04-25T00:54:41;2.00;;;1.83;;
7375;SDS011;3728;42.266;24.944;2023-04-25T00:57:09;3.03;;;2.40;;
7375;SDS011;3728;42.266;24.944;2023-04-25T00:59:37;3.77;;;2.83;;
7375;SDS011;3728;42.266;24.944;2023-04-25T01:02:07;3.47;;;2.10;;
7375;SDS011;3728;42.266;24.944;2023-04-25T01:04:36;2.40;;;1.60;;
7375;SDS011;3728;42.266;24.944;2023-04-25T01:07:03;1.90;;;1.30;;
7375;SDS011;3728;42.266;24.944;2023-04-25T01:09:31;1.00;;;1.00;;
7375;SDS011;3728;42.266;24.944;2023-04-25T01:11:59;1.10;;;1.00;;
7375;SDS011;3728;42.266;24.944;2023-04-25T01:14:27;1.23;;;1.20;;
7375;SDS011;3728;42.266;24.944;2023-04-25T01:16:56;15.93;;;11.07;;
7375;SDS011;3728;42.266;24.944;2023-04-25T01:19:24;3.90;;;3.30;;
7375;SDS011;3728;42.266;24.944;2023-04-25T01:21:52;4.60;;;1.97;;
7375;SDS011;3728;42.266;24.944;2023-04-25T01:24:20;1.23;;;1.20;;
7375;SDS011;3728;42.266;24.944;2023-04-25T01:26:48;1.30;;;1.20;;
7375;SDS011;3728;42.266;24.944;2023-04-25T01:29:21;2.50;;;1.30;;
7375;SDS011;3728;42.266;24.944;2023-04-25T01:31:51;1.60;;;1.50;;
7375;SDS011;3728;42.266;24.944;2023-04-25T01:34:19;6.27;;;1.60;;
7375;SDS011;3728;42.266;24.944;2023-04-25T01:36:48;1.60;;;1.50;;
7375;SDS011;3728;42.266;24.944;2023-04-25T01:39:17;1.87;;;1.77;;
7375;SDS011;3728;42.266;24.944;2023-04-25T01:41:46;2.17;;;1.93;;
7375;SDS011;3728;42.266;24.944;2023-04-25T01:44:14;3.20;;;2.10;;
7375;SDS011;3728;42.266;24.944;2023-04-25T01:46:42;4.13;;;2.13;;
7375;SDS011;3728;42.266;24.944;2023-04-25T01:49:10;2.97;;;2.33;;
7375;SDS011;3728;42.266;24.944;2023-04-25T01:51:39;3.17;;;2.97;;
7375;SDS011;3728;42.266;24.944;2023-04-25T01:54:08;5.23;;;4.03;;
7375;SDS011;3728;42.266;24.944;2023-04-25T01:56:37;2.87;;;2.50;;
7375;SDS011;3728;42.266;24.944;2023-04-25T01:59:09;3.80;;;2.13;;
7375;SDS011;3728;42.266;24.944;2023-04-25T02:01:54;4.43;;;2.23;;
7375;SDS011;3728;42.266;24.944;2023-04-25T02:04:27;3.33;;;2.30;;
7375;SDS011;3728;42.266;24.944;2023-04-25T02:06:55;3.30;;;2.30;;
7375;SDS011;3728;42.266;24.944;2023-04-25T02:09:28;2.97;;;2.50;;
7375;SDS011;3728;42.266;24.944;2023-04-25T02:11:57;2.57;;;2.37;;
7375;SDS011;3728;42.266;24.944;2023-04-25T02:14:52;5.47;;;2.10;;
7375;SDS011;3728;42.266;24.944;2023-04-25T02:17:26;2.67;;;2.00;;
7375;SDS011;3728;42.266;24.944;2023-04-25T02:19:54;2.20;;;2.00;;
7375;SDS011;3728;42.266;24.944;2023-04-25T02:22:22;2.90;;;1.80;;
7375;SDS011;3728;42.266;24.944;2023-04-25T02:24:50;1.50;;;1.40;;
7375;SDS011;3728;42.266;24.944;2023-04-25T02:27:20;1.67;;;1.57;;
7375;SDS011;3728;42.266;24.944;2023-04-25T02:29:48;2.27;;;1.57;;
7375;SDS011;3728;42.266;24.944;2023-04-25T02:32:15;2.03;;;1.70;;
7375;SDS011;3728;42.266;24.944;2023-04-25T02:34:43;4.20;;;1.90;;
7375;SDS011;3728;42.266;24.944;2023-04-25T02:37:11;4.37;;;1.80;;
7375;SDS011;3728;42.266;24.944;2023-04-25T02:39:38;2.07;;;1.87;;
7375;SDS011;3728;42.266;24.944;2023-04-25T02:42:06;1.90;;;1.80;;
7375;SDS011;3728;42.266;24.944;2023-04-25T02:44:33;2.27;;;1.87;;
7375;SDS011;3728;42.266;24.944;2023-04-25T02:47:01;2.13;;;1.97;;
7375;SDS011;3728;42.266;24.944;2023-04-25T02:49:28;2.40;;;2.20;;
7375;SDS011;3728;42.266;24.944;2023-04-25T02:51:56;2.17;;;2.03;;
7375;SDS011;3728;42.266;24.944;2023-04-25T02:54:26;2.00;;;1.90;;
7375;SDS011;3728;42.266;24.944;2023-04-25T02:56:55;1.90;;;1.80;;
7375;SDS011;3728;42.266;24.944;2023-04-25T02:59:26;2.53;;;2.00;;
7375;SDS011;3728;42.266;24.944;2023-04-25T03:01:53;2.50;;;2.13;;
7375;SDS011;3728;42.266;24.944;2023-04-25T03:04:22;2.90;;;1.97;;
7375;SDS011;3728;42.266;24.944;2023-04-25T03:06:50;2.33;;;2.00;;
7375;SDS011;3728;42.266;24.944;2023-04-25T03:09:20;2.00;;;1.90;;
7375;SDS011;3728;42.266;24.944;2023-04-25T03:11:48;2.30;;;2.10;;
7375;SDS011;3728;42.266;24.944;2023-04-25T03:14:16;11.37;;;10.27;;
7375;SDS011;3728;42.266;24.944;2023-04-25T03:16:44;38.13;;;25.07;;
7375;SDS011;3728;42.266;24.944;2023-04-25T03:19:12;31.60;;;19.60;;
7375;SDS011;3728;42.266;24.944;2023-04-25T03:21:42;64.10;;;45.10;;
7375;SDS011;3728;42.266;24.944;2023-04-25T03:24:11;15.20;;;8.97;;
7375;SDS011;3728;42.266;24.944;2023-04-25T03:26:39;36.97;;;22.60;;
7375;SDS011;3728;42.266;24.944;2023-04-25T03:29:07;24.50;;;16.27;;
7375;SDS011;3728;42.266;24.944;2023-04-25T03:31:36;11.03;;;5.50;;
7375;SDS011;3728;42.266;24.944;2023-04-25T03:34:04;4.53;;;4.00;;
7375;SDS011;3728;42.266;24.944;2023-04-25T03:36:31;3.90;;;2.70;;
7375;SDS011;3728;42.266;24.944;2023-04-25T03:38:59;3.00;;;2.70;;
7375;SDS011;3728;42.266;24.944;2023-04-25T03:41:29;2.70;;;2.50;;
7375;SDS011;3728;42.266;24.944;2023-04-25T03:44:03;2.50;;;2.20;;
7375;SDS011;3728;42.266;24.944;2023-04-25T03:46:31;2.27;;;2.07;;
7375;SDS011;3728;42.266;24.944;2023-04-25T03:48:59;2.13;;;1.70;;
7375;SDS011;3728;42.266;24.944;2023-04-25T03:51:40;1.73;;;1.63;;
7375;SDS011;3728;42.266;24.944;2023-04-25T03:54:11;4.70;;;2.10;;
7375;SDS011;3728;42.266;24.944;2023-04-25T03:56:39;1.70;;;1.60;;
7375;SDS011;3728;42.266;24.944;2023-04-25T03:59:15;3.80;;;1.60;;
7375;SDS011;3728;42.266;24.944;2023-04-25T04:01:44;1.97;;;1.87;;
7375;SDS011;3728;42.266;24.944;2023-04-25T04:04:11;2.33;;;2.13;;
7375;SDS011;3728;42.266;24.944;2023-04-25T04:06:40;2.23;;;2.03;;
7375;SDS011;3728;42.266;24.944;2023-04-25T04:09:14;2.10;;;1.90;;
7375;SDS011;3728;42.266;24.944;2023-04-25T04:11:43;2.07;;;1.97;;
7375;SDS011;3728;42.266;24.944;2023-04-25T04:14:11;2.90;;;1.73;;
7375;SDS011;3728;42.266;24.944;2023-04-25T04:16:43;2.17;;;1.97;;
7375;SDS011;3728;42.266;24.944;2023-04-25T04:19:14;2.30;;;1.87;;
7375;SDS011;3728;42.266;24.944;2023-04-25T04:21:48;3.10;;;2.10;;
7375;SDS011;3728;42.266;24.944;2023-04-25T04:24:15;3.20;;;2.33;;
7375;SDS011;3728;42.266;24.944;2023-04-25T04:26:58;4.27;;;3.00;;
7375;SDS011;3728;42.266;24.944;2023-04-25T04:29:49;6.20;;;2.70;;
7375;SDS011;3728;42.266;24.944;2023-04-25T04:32:24;7.60;;;3.40;;
7375;SDS011;3728;42.266;24.944;2023-04-25T04:34:54;4.90;;;2.47;;
7375;SDS011;3728;42.266;24.944;2023-04-25T04:37:23;3.97;;;2.53;;
7375;SDS011;3728;42.266;24.944;2023-04-25T04:39:52;4.57;;;2.60;;
7375;SDS011;3728;42.266;24.944;2023-04-25T04:42:26;2.53;;;2.30;;
7375;SDS011;3728;42.266;24.944;2023-04-25T04:45:02;2.67;;;2.00;;
7375;SDS011;3728;42.266;24.944;2023-04-25T04:47:50;2.33;;;1.93;;
7375;SDS011;3728;42.266;24.944;2023-04-25T04:50:53;7.33;;;3.50;;
7375;SDS011;3728;42.266;24.944;2023-04-25T04:53:34;17.20;;;7.77;;
7375;SDS011;3728;42.266;24.944;2023-04-25T04:56:30;10.03;;;5.27;;
7375;SDS011;3728;42.266;24.944;2023-04-25T04:59:24;5.53;;;3.57;;
7375;SDS011;3728;42.266;24.944;2023-04-25T05:02:06;5.73;;;2.80;;
7375;SDS011;3728;42.266;24.944;2023-04-25T05:04:50;5.63;;;3.00;;
7375;SDS011;3728;42.266;24.944;2023-04-25T05:07:26;3.20;;;2.63;;
7375;SDS011;3728;42.266;24.944;2023-04-25T05:10:03;3.77;;;2.80;;
7375;SDS011;3728;42.266;24.944;2023-04-25T05:12:42;6.60;;;4.10;;
7375;SDS011;3728;42.266;24.944;2023-04-25T05:15:16;3.57;;;3.00;;
7375;SDS011;3728;42.266;24.944;2023-04-25T05:18:07;4.60;;;3.40;;
7375;SDS011;3728;42.266;24.944;2023-04-25T05:20:43;3.63;;;3.33;;
7375;SDS011;3728;42.266;24.944;2023-04-25T05:23:30;4.17;;;3.03;;
7375;SDS011;3728;42.266;24.944;2023-04-25T05:26:17;3.20;;;2.50;;
7375;SDS011;3728;42.266;24.944;2023-04-25T05:29:04;3.27;;;2.50;;
7375;SDS011;3728;42.266;24.944;2023-04-25T05:31:52;2.43;;;2.30;;
7375;SDS011;3728;42.266;24.944;2023-04-25T05:34:20;3.40;;;2.70;;
7375;SDS011;3728;42.266;24.944;2023-04-25T05:36:54;2.37;;;2.13;;
7375;SDS011;3728;42.266;24.944;2023-04-25T05:39:22;2.70;;;2.50;;
7375;SDS011;3728;42.266;24.944;2023-04-25T05:42:08;2.40;;;2.20;;
7375;SDS011;3728;42.266;24.944;2023-04-25T05:44:57;2.57;;;2.37;;
7375;SDS011;3728;42.266;24.944;2023-04-25T05:47:45;2.60;;;1.90;;
7375;SDS011;3728;42.266;24.944;2023-04-25T05:50:32;3.17;;;2.10;;
7375;SDS011;3728;42.266;24.944;2023-04-25T05:53:03;2.17;;;2.03;;
7375;SDS011;3728;42.266;24.944;2023-04-25T05:55:38;1.90;;;1.80;;
7375;SDS011;3728;42.266;24.944;2023-04-25T05:58:23;2.30;;;2.20;;
7375;SDS011;3728;42.266;24.944;2023-04-25T06:00:52;2.43;;;1.90;;
7375;SDS011;3728;42.266;24.944;2023-04-25T06:03:20;2.27;;;2.07;;
7375;SDS011;3728;42.266;24.944;2023-04-25T06:05:49;3.50;;;2.20;;
7375;SDS011;3728;42.266;24.944;2023-04-25T06:08:18;2.00;;;1.90;;
7375;SDS011;3728;42.266;24.944;2023-04-25T06:10:48;2.50;;;2.20;;
7375;SDS011;3728;42.266;24.944;2023-04-25T06:13:16;2.70;;;2.50;;
7375;SDS011;3728;42.266;24.944;2023-04-25T06:15:44;3.00;;;1.87;;
7375;SDS011;3728;42.266;24.944;2023-04-25T06:18:11;1.63;;;1.53;;
7375;SDS011;3728;42.266;24.944;2023-04-25T06:20:39;2.73;;;1.90;;
7375;SDS011;3728;42.266;24.944;2023-04-25T06:23:06;3.13;;;2.83;;
7375;SDS011;3728;42.266;24.944;2023-04-25T06:25:45;6.67;;;2.63;;
7375;SDS011;3728;42.266;24.944;2023-04-25T06:28:12;4.47;;;2.67;;
7375;SDS011;3728;42.266;24.944;2023-04-25T06:30:42;3.53;;;2.20;;
7375;SDS011;3728;42.266;24.944;2023-04-25T06:33:13;2.00;;;1.80;;
7375;SDS011;3728;42.266;24.944;2023-04-25T06:35:41;4.37;;;2.37;;
7375;SDS011;3728;42.266;24.944;2023-04-25T06:38:11;2.37;;;2.10;;
7375;SDS011;3728;42.266;24.944;2023-04-25T06:40:42;6.00;;;4.03;;
7375;SDS011;3728;42.266;24.944;2023-04-25T06:43:09;2.67;;;1.93;;
7375;SDS011;3728;42.266;24.944;2023-04-25T06:46:03;5.67;;;2.57;;
7375;SDS011;3728;42.266;24.944;2023-04-25T06:48:35;6.63;;;3.90;;
7375;SDS011;3728;42.266;24.944;2023-04-25T06:51:04;6.03;;;2.40;;
7375;SDS011;3728;42.266;24.944;2023-04-25T06:53:33;4.33;;;2.07;;
7375;SDS011;3728;42.266;24.944;2023-04-25T06:56:04;1.60;;;1.47;;
7375;SDS011;3728;42.266;24.944;2023-04-25T06:58:51;2.80;;;1.80;;
7375;SDS011;3728;42.266;24.944;2023-04-25T07:01:36;1.60;;;1.50;;
7375;SDS011;3728;42.266;24.944;2023-04-25T07:04:09;1.60;;;1.50;;
7375;SDS011;3728;42.266;24.944;2023-04-25T07:06:42;1.67;;;1.57;;
7375;SDS011;3728;42.266;24.944;2023-04-25T07:09:11;4.03;;;1.60;;
7375;SDS011;3728;42.266;24.944;2023-04-25T07:11:41;2.60;;;2.00;;
7375;SDS011;3728;42.266;24.944;2023-04-25T07:14:09;2.47;;;1.73;;
7375;SDS011;3728;42.266;24.944;2023-04-25T07:16:37;4.90;;;1.60;;
7375;SDS011;3728;42.266;24.944;2023-04-25T07:19:04;6.00;;;1.73;;
7375;SDS011;3728;42.266;24.944;2023-04-25T07:21:32;5.27;;;2.20;;
7375;SDS011;3728;42.266;24.944;2023-04-25T07:24:02;3.07;;;1.87;;
7375;SDS011;3728;42.266;24.944;2023-04-25T07:26:33;2.93;;;2.00;;
7375;SDS011;3728;42.266;24.944;2023-04-25T07:29:21;6.23;;;1.90;;
7375;SDS011;3728;42.266;24.944;2023-04-25T07:31:49;2.67;;;1.73;;
7375;SDS011;3728;42.266;24.944;2023-04-25T07:34:19;3.50;;;2.23;;
7375;SDS011;3728;42.266;24.944;2023-04-25T07:36:49;3.50;;;2.10;;
7375;SDS011;3728;42.266;24.944;2023-04-25T07:39:17;1.87;;;1.77;;
7375;SDS011;3728;42.266;24.944;2023-04-25T07:41:45;2.90;;;2.00;;
7375;SDS011;3728;42.266;24.944;2023-04-25T07:44:18;1.37;;;1.23;;
7375;SDS011;3728;42.266;24.944;2023-04-25T07:46:46;2.73;;;1.70;;
7375;SDS011;3728;42.266;24.944;2023-04-25T07:49:14;1.87;;;1.77;;
7375;SDS011;3728;42.266;24.944;2023-04-25T07:51:43;1.73;;;1.50;;
7375;SDS011;3728;42.266;24.944;2023-04-25T07:54:15;1.97;;;1.70;;
7375;SDS011;3728;42.266;24.944;2023-04-25T07:56:51;6.97;;;2.20;;
7375;SDS011;3728;42.266;24.944;2023-04-25T07:59:24;2.17;;;1.80;;
7375;SDS011;3728;42.266;24.944;2023-04-25T08:01:55;3.03;;;1.70;;
7375;SDS011;3728;42.266;24.944;2023-04-25T08:04:24;2.80;;;1.83;;
7375;SDS011;3728;42.266;24.944;2023-04-25T08:06:57;1.77;;;1.67;;
7375;SDS011;3728;42.266;24.944;2023-04-25T08:09:30;2.53;;;1.90;;
7375;SDS011;3728;42.266;24.944;2023-04-25T08:12:03;1.80;;;1.70;;
7375;SDS011;3728;42.266;24.944;2023-04-25T08:14:32;12.03;;;2.60;;
7375;SDS011;3728;42.266;24.944;2023-04-25T08:17:04;2.00;;;1.80;;
7375;SDS011;3728;42.266;24.944;2023-04-25T08:19:38;1.70;;;1.60;;
7375;SDS011;3728;42.266;24.944;2023-04-25T08:22:09;2.03;;;1.87;;
7375;SDS011;3728;42.266;24.944;2023-04-25T08:24:47;3.60;;;1.80;;
7375;SDS011;3728;42.266;24.944;2023-04-25T08:27:16;3.73;;;1.80;;
7375;SDS011;3728;42.266;24.944;2023-04-25T08:29:45;2.87;;;2.00;;
7375;SDS011;3728;42.266;24.944;2023-04-25T08:32:13;1.73;;;1.63;;
7375;SDS011;3728;42.266;24.944;2023-04-25T08:34:52;1.97;;;1.80;;
7375;SDS011;3728;42.266;24.944;2023-04-25T08:37:21;6.37;;;2.00;;
7375;SDS011;3728;42.266;24.944;2023-04-25T08:39:55;2.10;;;2.00;;
7375;SDS011;3728;42.266;24.944;2023-04-25T08:42:52;1.97;;;1.80;;
7375;SDS011;3728;42.266;24.944;2023-04-25T08:45:22;3.43;;;2.00;;
7375;SDS011;3728;42.266;24.944;2023-04-25T08:47:51;3.67;;;1.90;;
7375;SDS011;3728;42.266;24.944;2023-04-25T08:50:21;3.10;;;2.13;;
7375;SDS011;3728;42.266;24.944;2023-04-25T08:52:53;34.47;;;4.17;;
7375;SDS011;3728;42.266;24.944;2023-04-25T08:55:22;3.60;;;2.40;;
7375;SDS011;3728;42.266;24.944;2023-04-25T08:57:53;3.20;;;2.20;;
7375;SDS011;3728;42.266;24.944;2023-04-25T09:00:22;5.67;;;2.20;;
7375;SDS011;3728;42.266;24.944;2023-04-25T09:02:50;2.53;;;2.17;;
7375;SDS011;3728;42.266;24.944;2023-04-25T09:05:21;2.83;;;2.53;;
7375;SDS011;3728;42.266;24.944;2023-04-25T09:07:52;14.83;;;3.20;;
7375;SDS011;3728;42.266;24.944;2023-04-25T09:10:19;7.70;;;2.90;;
7375;SDS011;3728;42.266;24.944;2023-04-25T09:16:02;2.27;;;1.90;;
7375;SDS011;3728;42.266;24.944;2023-04-25T09:19:13;4.07;;;2.10;;
7375;SDS011;3728;42.266;24.944;2023-04-25T09:22:14;9.20;;;2.90;;
7375;SDS011;3728;42.266;24.944;2023-04-25T09:24:47;1.80;;;1.70;;
7375;SDS011;3728;42.266;24.944;2023-04-25T09:27:19;12.13;;;3.27;;
7375;SDS011;3728;42.266;24.944;2023-04-25T09:29:58;12.47;;;2.93;;
7375;SDS011;3728;42.266;24.944;2023-04-25T09:32:47;10.90;;;3.47;;
7375;SDS011;3728;42.266;24.944;2023-04-25T09:35:23;1.97;;;1.83;;
7375;SDS011;3728;42.266;24.944;2023-04-25T09:37:53;10.07;;;3.00;;
7375;SDS011;3728;42.266;24.944;2023-04-25T09:40:48;3.30;;;1.90;;
7375;SDS011;3728;42.266;24.944;2023-04-25T09:43:34;2.43;;;1.97;;
7375;SDS011;3728;42.266;24.944;2023-04-25T09:46:02;3.50;;;1.83;;
7375;SDS011;3728;42.266;24.944;2023-04-25T09:48:38;1.90;;;1.80;;
7375;SDS011;3728;42.266;24.944;2023-04-25T09:51:09;2.10;;;1.90;;
7375;SDS011;3728;42.266;24.944;2023-04-25T09:53:45;5.37;;;2.57;;
7375;SDS011;3728;42.266;24.944;2023-04-25T09:56:26;7.13;;;2.63;;
7375;SDS011;3728;42.266;24.944;2023-04-25T09:59:05;7.57;;;2.53;;
7375;SDS011;3728;42.266;24.944;2023-04-25T10:01:35;5.43;;;1.90;;
7375;SDS011;3728;42.266;24.944;2023-04-25T10:04:21;1.50;;;1.40;;
7375;SDS011;3728;42.266;24.944;2023-04-25T10:06:57;1.63;;;1.40;;
7375;SDS011;3728;42.266;24.944;2023-04-25T10:09:26;4.67;;;1.83;;
7375;SDS011;3728;42.266;24.944;2023-04-25T10:11:58;1.80;;;1.70;;
7375;SDS011;3728;42.266;24.944;2023-04-25T10:14:26;1.90;;;1.80;;
7375;SDS011;3728;42.266;24.944;2023-04-25T10:17:00;1.60;;;1.50;;
7375;SDS011;3728;42.266;24.944;2023-04-25T10:19:28;3.63;;;1.80;;
7375;SDS011;3728;42.266;24.944;2023-04-25T10:22:13;12.33;;;2.97;;
7375;SDS011;3728;42.266;24.944;2023-04-25T10:24:50;4.73;;;1.77;;
7375;SDS011;3728;42.266;24.944;2023-04-25T10:27:18;4.67;;;1.80;;
7375;SDS011;3728;42.266;24.944;2023-04-25T10:30:01;4.57;;;2.00;;
7375;SDS011;3728;42.266;24.944;2023-04-25T10:32:37;1.43;;;1.33;;
7375;SDS011;3728;42.266;24.944;2023-04-25T10:35:15;1.83;;;1.57;;
7375;SDS011;3728;42.266;24.944;2023-04-25T10:40:26;2.20;;;1.87;;
7375;SDS011;3728;42.266;24.944;2023-04-25T10:42:54;2.50;;;2.03;;
7375;SDS011;3728;42.266;24.944;2023-04-25T10:45:22;4.47;;;1.70;;
7375;SDS011;3728;42.266;24.944;2023-04-25T10:47:50;1.93;;;1.50;;
7375;SDS011;3728;42.266;24.944;2023-04-25T10:50:18;4.03;;;2.00;;
7375;SDS011;3728;42.266;24.944;2023-04-25T10:52:45;2.23;;;1.77;;
7375;SDS011;3728;42.266;24.944;2023-04-25T10:55:13;1.67;;;1.57;;
7375;SDS011;3728;42.266;24.944;2023-04-25T10:57:42;3.67;;;1.77;;
7375;SDS011;3728;42.266;24.944;2023-04-25T11:00:17;3.25;;;2.28;;
7375;SDS011;3728;42.266;24.944;2023-04-25T11:02:58;2.90;;;2.40;;
7375;SDS011;3728;42.266;24.944;2023-04-25T11:05:34;6.75;;;2.78;;
7375;SDS011;3728;42.266;24.944;2023-04-25T11:08:26;2.35;;;1.98;;
7375;SDS011;3728;42.266;24.944;2023-04-25T11:11:17;4.15;;;1.92;;
7375;SDS011;3728;42.266;24.944;2023-04-25T11:13:48;1.80;;;1.70;;
7375;SDS011;3728;42.266;24.944;2023-04-25T11:16:17;3.15;;;2.00;;
7375;SDS011;3728;42.266;24.944;2023-04-25T11:18:53;2.88;;;2.22;;
7375;SDS011;3728;42.266;24.944;2023-04-25T11:21:26;2.03;;;1.92;;
7375;SDS011;3728;42.266;24.944;2023-04-25T11:23:56;2.00;;;1.50;;
7375;SDS011;3728;42.266;24.944;2023-04-25T11:26:24;11.20;;;2.75;;
7375;SDS011;3728;42.266;24.944;2023-04-25T11:28:56;12.82;;;2.25;;
7375;SDS011;3728;42.266;24.944;2023-04-25T11:31:26;2.05;;;1.55;;
7375;SDS011;3728;42.266;24.944;2023-04-25T11:33:54;2.65;;;1.80;;
7375;SDS011;3728;42.266;24.944;2023-04-25T11:36:24;23.33;;;2.83;;
7375;SDS011;3728;42.266;24.944;2023-04-25T11:38:53;2.72;;;1.48;;
7375;SDS011;3728;42.266;24.944;2023-04-25T11:41:21;1.48;;;1.23;;
7375;SDS011;3728;42.266;24.944;2023-04-25T11:43:48;1.67;;;1.30;;
7375;SDS011;3728;42.266;24.944;2023-04-25T11:46:18;2.22;;;2.13;;
7375;SDS011;3728;42.266;24.944;2023-04-25T11:48:46;1.50;;;1.40;;
7375;SDS011;3728;42.266;24.944;2023-04-25T11:51:14;5.82;;;1.60;;
7375;SDS011;3728;42.266;24.944;2023-04-25T11:53:43;1.40;;;1.30;;
7375;SDS011;3728;42.266;24.944;2023-04-25T11:56:15;1.55;;;1.45;;
7375;SDS011;3728;42.266;24.944;2023-04-25T12:01:25;1.60;;;1.50;;
7375;SDS011;3728;42.266;24.944;2023-04-25T12:06:59;2.35;;;1.48;;
7375;SDS011;3728;42.266;24.944;2023-04-25T12:09:29;1.27;;;1.17;;
7375;SDS011;3728;42.266;24.944;2023-04-25T12:11:59;3.08;;;1.30;;
7375;SDS011;3728;42.266;24.944;2023-04-25T12:14:33;1.30;;;1.20;;
7375;SDS011;3728;42.266;24.944;2023-04-25T12:17:02;1.23;;;1.08;;
7375;SDS011;3728;42.266;24.944;2023-04-25T12:19:35;1.67;;;1.13;;
7375;SDS011;3728;42.266;24.944;2023-04-25T12:22:21;2.03;;;1.35;;
7375;SDS011;3728;42.266;24.944;2023-04-25T12:24:50;20.98;;;2.95;;
7375;SDS011;3728;42.266;24.944;2023-04-25T12:27:20;8.32;;;1.70;;
7375;SDS011;3728;42.266;24.944;2023-04-25T12:29:51;6.43;;;2.90;;
7375;SDS011;3728;42.266;24.944;2023-04-25T12:32:23;10.10;;;3.78;;
7375;SDS011;3728;42.266;24.944;2023-04-25T12:34:52;4.88;;;3.20;;
7375;SDS011;3728;42.266;24.944;2023-04-25T12:37:22;3.88;;;3.58;;
7375;SDS011;3728;42.266;24.944;2023-04-25T12:39:50;8.43;;;3.55;;
7375;SDS011;3728;42.266;24.944;2023-04-25T12:42:17;21.08;;;4.60;;
7375;SDS011;3728;42.266;24.944;2023-04-25T12:44:45;4.05;;;2.95;;
7375;SDS011;3728;42.266;24.944;2023-04-25T12:47:12;5.75;;;3.17;;
7375;SDS011;3728;42.266;24.944;2023-04-25T12:49:41;11.55;;;3.47;;
7375;SDS011;3728;42.266;24.944;2023-04-25T12:52:08;4.03;;;3.00;;
7375;SDS011;3728;42.266;24.944;2023-04-25T12:54:36;3.95;;;3.00;;
7375;SDS011;3728;42.266;24.944;2023-04-25T12:57:04;6.82;;;3.30;;
7375;SDS011;3728;42.266;24.944;2023-04-25T12:59:34;5.22;;;3.20;;
7375;SDS011;3728;42.266;24.944;2023-04-25T13:02:02;21.85;;;4.25;;
7375;SDS011;3728;42.266;24.944;2023-04-25T13:04:30;3.95;;;2.22;;
7375;SDS011;3728;42.266;24.944;2023-04-25T13:06:57;4.85;;;2.78;;
7375;SDS011;3728;42.266;24.944;2023-04-25T13:09:27;2.90;;;2.10;;
7375;SDS011;3728;42.266;24.944;2023-04-25T13:11:55;9.90;;;3.13;;
7375;SDS011;3728;42.266;24.944;2023-04-25T13:14:24;2.83;;;2.35;;
7375;SDS011;3728;42.266;24.944;2023-04-25T13:16:52;2.42;;;1.73;;
7375;SDS011;3728;42.266;24.944;2023-04-25T13:19:22;3.35;;;2.15;;
7375;SDS011;3728;42.266;24.944;2023-04-25T13:21:49;3.13;;;1.63;;
7375;SDS011;3728;42.266;24.944;2023-04-25T13:24:17;4.38;;;1.70;;
7375;SDS011;3728;42.266;24.944;2023-04-25T13:26:44;3.08;;;1.38;;
7375;SDS011;3728;42.266;24.944;2023-04-25T13:29:12;1.50;;;1.40;;
7375;SDS011;3728;42.266;24.944;2023-04-25T13:31:39;2.75;;;1.35;;
7375;SDS011;3728;42.266;24.944;2023-04-25T13:34:07;3.47;;;1.65;;
7375;SDS011;3728;42.266;24.944;2023-04-25T13:36:35;1.50;;;1.40;;
7375;SDS011;3728;42.266;24.944;2023-04-25T13:39:02;2.45;;;1.40;;
7375;SDS011;3728;42.266;24.944;2023-04-25T13:41:31;1.70;;;1.60;;
7375;SDS011;3728;42.266;24.944;2023-04-25T13:43:59;5.40;;;1.50;;
7375;SDS011;3728;42.266;24.944;2023-04-25T13:46:27;1.35;;;1.23;;
7375;SDS011;3728;42.266;24.944;2023-04-25T13:49:12;2.47;;;1.00;;
7375;SDS011;3728;42.266;24.944;2023-04-25T13:51:39;1.13;;;0.87;;
7375;SDS011;3728;42.266;24.944;2023-04-25T13:54:08;0.80;;;0.80;;
7375;SDS011;3728;42.266;24.944;2023-04-25T13:56:36;0.60;;;0.60;;
7375;SDS011;3728;42.266;24.944;2023-04-25T13:59:04;2.47;;;1.37;;
7375;SDS011;3728;42.266;24.944;2023-04-25T14:01:32;2.80;;;1.47;;
7375;SDS011;3728;42.266;24.944;2023-04-25T14:04:03;1.57;;;1.40;;
7375;SDS011;3728;42.266;24.944;2023-04-25T14:06:51;3.30;;;1.70;;
7375;SDS011;3728;42.266;24.944;2023-04-25T14:09:18;5.77;;;4.40;;
7375;SDS011;3728;42.266;24.944;2023-04-25T14:11:51;9.30;;;6.20;;
7375;SDS011;3728;42.266;24.944;2023-04-25T14:14:19;6.67;;;5.20;;
7375;SDS011;3728;42.266;24.944;2023-04-25T14:16:50;8.37;;;6.47;;
7375;SDS011;3728;42.266;24.944;2023-04-25T14:19:20;2.97;;;1.90;;
7375;SDS011;3728;42.266;24.944;2023-04-25T14:21:48;3.40;;;2.30;;
7375;SDS011;3728;42.266;24.944;2023-04-25T14:24:16;4.03;;;2.00;;
7375;SDS011;3728;42.266;24.944;2023-04-25T14:26:43;2.90;;;1.25;;
7375;SDS011;3728;42.266;24.944;2023-04-25T14:29:11;3.25;;;0.90;;
7375;SDS011;3728;42.266;24.944;2023-04-25T14:31:39;2.10;;;1.13;;
7375;SDS011;3728;42.266;24.944;2023-04-25T14:34:07;1.17;;;1.07;;
7375;SDS011;3728;42.266;24.944;2023-04-25T14:36:35;1.20;;;1.00;;
7375;SDS011;3728;42.266;24.944;2023-04-25T14:39:03;5.73;;;1.30;;
7375;SDS011;3728;42.266;24.944;2023-04-25T14:41:34;2.07;;;1.10;;
7375;SDS011;3728;42.266;24.944;2023-04-25T14:44:02;3.63;;;1.50;;
7375;SDS011;3728;42.266;24.944;2023-04-25T14:46:30;14.47;;;2.03;;
7375;SDS011;3728;42.266;24.944;2023-04-25T14:48:57;2.58;;;1.30;;
7375;SDS011;3728;42.266;24.944;2023-04-25T14:51:25;5.37;;;1.40;;
7375;SDS011;3728;42.266;24.944;2023-04-25T14:53:52;1.90;;;1.60;;
7375;SDS011;3728;42.266;24.944;2023-04-25T14:56:20;3.23;;;1.47;;
7375;SDS011;3728;42.266;24.944;2023-04-25T14:58:48;8.03;;;1.20;;
7375;SDS011;3728;42.266;24.944;2023-04-25T15:01:17;1.67;;;1.53;;
7375;SDS011;3728;42.266;24.944;2023-04-25T15:03:47;7.10;;;1.27;;
7375;SDS011;3728;42.266;24.944;2023-04-25T15:06:15;3.13;;;1.20;;
7375;SDS011;3728;42.266;24.944;2023-04-25T15:08:44;3.43;;;1.40;;
7375;SDS011;3728;42.266;24.944;2023-04-25T15:11:11;1.90;;;1.23;;
7375;SDS011;3728;42.266;24.944;2023-04-25T15:13:39;1.20;;;1.10;;
7375;SDS011;3728;42.266;24.944;2023-04-25T15:16:06;1.63;;;0.80;;
7375;SDS011;3728;42.266;24.944;2023-04-25T15:18:34;2.30;;;1.10;;
7375;SDS011;3728;42.266;24.944;2023-04-25T15:21:01;0.97;;;0.80;;
7375;SDS011;3728;42.266;24.944;2023-04-25T15:23:29;3.53;;;0.67;;
7375;SDS011;3728;42.266;24.944;2023-04-25T15:25:57;1.60;;;0.70;;
7375;SDS011;3728;42.266;24.944;2023-04-25T15:28:24;2.23;;;0.80;;
7375;SDS011;3728;42.266;24.944;2023-04-25T15:30:52;1.97;;;1.10;;
7375;SDS011;3728;42.266;24.944;2023-04-25T15:33:20;2.87;;;1.10;;
7375;SDS011;3728;42.266;24.944;2023-04-25T15:35:48;3.07;;;0.90;;
7375;SDS011;3728;42.266;24.944;2023-04-25T15:38:15;1.97;;;1.87;;